Green Village, New Jersey
Current Conditions -  °F | °C
As of 11:53 PM on Friday 28 Nov 2014 (Local Time) from KCDW Reporting Station
Few Clouds Few Clouds  
Wind Chill: 21°   Ceiling: Unl
Heat Index: 21°   Visibility: 10mi
Dew Point: 14°   Wind: 0mph
Humidity: 74%   Direction: NA
Pressure: 30.28"   Gusts: NA
Location:  40.74°N, 74.45°W
Report Text: KCDW 290453Z AUTO 00000KT 10SM FEW120 M06/M10 A3028 RMK AO2 SLP261 T10611100 400171061 TSNO
Loading
Personal Weather Stations






























Interactive Weather Map New forecast layout! Learn more

10-Day Weather Forecast

Advertisements
Track Severe Weather on mobile